sensor_id;sensor_type;location;lat;lon;timestamp;P1;durP1;ratioP1;P2;durP2;ratioP2
13457;SDS011;6801;53.018;11.560;2023-03-31T00:01:19;6.95;;;1.65;;
13457;SDS011;6801;53.018;11.560;2023-03-31T00:03:48;6.18;;;2.00;;
13457;SDS011;6801;53.018;11.560;2023-03-31T00:06:15;12.98;;;2.65;;
13457;SDS011;6801;53.018;11.560;2023-03-31T00:08:43;10.23;;;2.33;;
13457;SDS011;6801;53.018;11.560;2023-03-31T00:11:11;10.15;;;1.95;;
13457;SDS011;6801;53.018;11.560;2023-03-31T00:13:38;4.53;;;2.05;;
13457;SDS011;6801;53.018;11.560;2023-03-31T00:16:07;7.10;;;2.08;;
13457;SDS011;6801;53.018;11.560;2023-03-31T00:18:35;7.43;;;1.70;;
13457;SDS011;6801;53.018;11.560;2023-03-31T00:21:06;6.00;;;2.10;;
13457;SDS011;6801;53.018;11.560;2023-03-31T00:23:38;5.82;;;2.55;;
13457;SDS011;6801;53.018;11.560;2023-03-31T00:26:05;9.05;;;2.30;;
13457;SDS011;6801;53.018;11.560;2023-03-31T00:28:33;6.15;;;1.98;;
13457;SDS011;6801;53.018;11.560;2023-03-31T00:31:00;9.32;;;2.15;;
13457;SDS011;6801;53.018;11.560;2023-03-31T00:33:29;9.07;;;1.90;;
13457;SDS011;6801;53.018;11.560;2023-03-31T00:35:56;10.20;;;2.20;;
13457;SDS011;6801;53.018;11.560;2023-03-31T00:38:26;8.98;;;1.60;;
13457;SDS011;6801;53.018;11.560;2023-03-31T00:40:54;5.25;;;1.63;;
13457;SDS011;6801;53.018;11.560;2023-03-31T00:43:28;9.55;;;2.28;;
13457;SDS011;6801;53.018;11.560;2023-03-31T00:45:59;3.72;;;1.60;;
13457;SDS011;6801;53.018;11.560;2023-03-31T00:48:33;8.35;;;1.95;;
13457;SDS011;6801;53.018;11.560;2023-03-31T00:51:03;8.30;;;1.88;;
13457;SDS011;6801;53.018;11.560;2023-03-31T00:53:32;6.38;;;1.60;;
13457;SDS011;6801;53.018;11.560;2023-03-31T00:56:04;7.55;;;1.83;;
13457;SDS011;6801;53.018;11.560;2023-03-31T00:58:34;3.45;;;1.25;;
13457;SDS011;6801;53.018;11.560;2023-03-31T01:01:08;7.97;;;2.50;;
13457;SDS011;6801;53.018;11.560;2023-03-31T01:03:41;5.70;;;1.90;;
13457;SDS011;6801;53.018;11.560;2023-03-31T01:06:10;7.20;;;2.22;;
13457;SDS011;6801;53.018;11.560;2023-03-31T01:08:38;7.90;;;1.80;;
13457;SDS011;6801;53.018;11.560;2023-03-31T01:11:08;4.65;;;2.17;;
13457;SDS011;6801;53.018;11.560;2023-03-31T01:13:38;6.15;;;1.70;;
13457;SDS011;6801;53.018;11.560;2023-03-31T01:16:07;6.57;;;2.15;;
13457;SDS011;6801;53.018;11.560;2023-03-31T01:18:34;6.53;;;2.17;;
13457;SDS011;6801;53.018;11.560;2023-03-31T01:33:26;8.07;;;2.13;;
13457;SDS011;6801;53.018;11.560;2023-03-31T01:36:24;8.23;;;1.80;;
13457;SDS011;6801;53.018;11.560;2023-03-31T01:39:21;5.85;;;1.88;;
13457;SDS011;6801;53.018;11.560;2023-03-31T01:42:14;7.00;;;1.85;;
13457;SDS011;6801;53.018;11.560;2023-03-31T01:44:49;6.32;;;2.47;;
13457;SDS011;6801;53.018;11.560;2023-03-31T01:47:26;4.72;;;2.00;;
13457;SDS011;6801;53.018;11.560;2023-03-31T01:50:00;6.57;;;1.83;;
13457;SDS011;6801;53.018;11.560;2023-03-31T01:52:34;7.63;;;1.95;;
13457;SDS011;6801;53.018;11.560;2023-03-31T01:55:06;6.15;;;1.85;;
13457;SDS011;6801;53.018;11.560;2023-03-31T01:57:39;6.55;;;2.50;;
13457;SDS011;6801;53.018;11.560;2023-03-31T02:00:11;7.57;;;1.73;;
13457;SDS011;6801;53.018;11.560;2023-03-31T02:02:41;8.70;;;2.55;;
13457;SDS011;6801;53.018;11.560;2023-03-31T02:05:14;8.68;;;2.15;;
13457;SDS011;6801;53.018;11.560;2023-03-31T02:07:46;8.00;;;2.33;;
13457;SDS011;6801;53.018;11.560;2023-03-31T02:10:15;8.70;;;2.72;;
13457;SDS011;6801;53.018;11.560;2023-03-31T02:12:45;8.25;;;2.40;;
13457;SDS011;6801;53.018;11.560;2023-03-31T02:15:15;6.90;;;2.25;;
13457;SDS011;6801;53.018;11.560;2023-03-31T02:17:47;8.70;;;2.47;;
13457;SDS011;6801;53.018;11.560;2023-03-31T02:20:19;9.25;;;2.88;;
13457;SDS011;6801;53.018;11.560;2023-03-31T02:22:48;8.27;;;2.47;;
13457;SDS011;6801;53.018;11.560;2023-03-31T02:25:18;7.60;;;2.30;;
13457;SDS011;6801;53.018;11.560;2023-03-31T02:27:53;10.45;;;3.17;;
13457;SDS011;6801;53.018;11.560;2023-03-31T02:30:23;9.52;;;2.83;;
13457;SDS011;6801;53.018;11.560;2023-03-31T02:32:57;8.30;;;2.75;;
13457;SDS011;6801;53.018;11.560;2023-03-31T02:35:25;11.60;;;3.20;;
13457;SDS011;6801;53.018;11.560;2023-03-31T02:37:55;11.63;;;2.72;;
13457;SDS011;6801;53.018;11.560;2023-03-31T02:40:23;5.70;;;2.28;;
13457;SDS011;6801;53.018;11.560;2023-03-31T02:42:53;7.28;;;2.40;;
13457;SDS011;6801;53.018;11.560;2023-03-31T02:45:37;7.38;;;2.42;;
13457;SDS011;6801;53.018;11.560;2023-03-31T02:48:08;4.80;;;2.28;;
13457;SDS011;6801;53.018;11.560;2023-03-31T02:50:41;7.33;;;2.63;;
13457;SDS011;6801;53.018;11.560;2023-03-31T02:53:38;8.52;;;2.38;;
13457;SDS011;6801;53.018;11.560;2023-03-31T02:56:25;6.55;;;2.65;;
13457;SDS011;6801;53.018;11.560;2023-03-31T02:59:17;8.60;;;3.10;;
13457;SDS011;6801;53.018;11.560;2023-03-31T03:01:59;5.38;;;2.65;;
13457;SDS011;6801;53.018;11.560;2023-03-31T03:04:38;10.68;;;2.80;;
13457;SDS011;6801;53.018;11.560;2023-03-31T03:07:18;10.35;;;2.45;;
13457;SDS011;6801;53.018;11.560;2023-03-31T03:09:56;9.40;;;3.00;;
13457;SDS011;6801;53.018;11.560;2023-03-31T03:12:28;5.70;;;2.50;;
13457;SDS011;6801;53.018;11.560;2023-03-31T03:15:03;9.50;;;2.90;;
13457;SDS011;6801;53.018;11.560;2023-03-31T03:17:34;7.35;;;2.70;;
13457;SDS011;6801;53.018;11.560;2023-03-31T03:20:05;5.97;;;2.22;;
13457;SDS011;6801;53.018;11.560;2023-03-31T03:22:34;5.25;;;2.40;;
13457;SDS011;6801;53.018;11.560;2023-03-31T03:25:02;8.68;;;2.40;;
13457;SDS011;6801;53.018;11.560;2023-03-31T03:27:30;6.95;;;2.22;;
13457;SDS011;6801;53.018;11.560;2023-03-31T03:29:57;8.63;;;2.47;;
13457;SDS011;6801;53.018;11.560;2023-03-31T03:32:25;9.73;;;2.13;;
13457;SDS011;6801;53.018;11.560;2023-03-31T03:34:52;9.35;;;2.42;;
13457;SDS011;6801;53.018;11.560;2023-03-31T03:37:19;11.45;;;2.45;;
13457;SDS011;6801;53.018;11.560;2023-03-31T03:39:46;8.57;;;2.15;;
13457;SDS011;6801;53.018;11.560;2023-03-31T03:42:13;6.60;;;2.30;;
13457;SDS011;6801;53.018;11.560;2023-03-31T03:44:40;6.22;;;2.08;;
13457;SDS011;6801;53.018;11.560;2023-03-31T03:47:07;4.25;;;1.58;;
13457;SDS011;6801;53.018;11.560;2023-03-31T03:49:35;6.85;;;1.98;;
13457;SDS011;6801;53.018;11.560;2023-03-31T03:52:02;7.97;;;2.00;;
13457;SDS011;6801;53.018;11.560;2023-03-31T03:54:29;9.63;;;3.08;;
13457;SDS011;6801;53.018;11.560;2023-03-31T03:56:56;8.75;;;2.58;;
13457;SDS011;6801;53.018;11.560;2023-03-31T03:59:23;9.05;;;2.10;;
13457;SDS011;6801;53.018;11.560;2023-03-31T04:01:50;5.28;;;1.92;;
13457;SDS011;6801;53.018;11.560;2023-03-31T04:04:17;3.97;;;1.48;;
13457;SDS011;6801;53.018;11.560;2023-03-31T04:06:46;6.55;;;2.17;;
13457;SDS011;6801;53.018;11.560;2023-03-31T04:09:13;7.90;;;2.03;;
13457;SDS011;6801;53.018;11.560;2023-03-31T04:11:40;8.02;;;2.03;;
13457;SDS011;6801;53.018;11.560;2023-03-31T04:14:07;6.03;;;1.73;;
13457;SDS011;6801;53.018;11.560;2023-03-31T04:16:33;7.25;;;1.80;;
13457;SDS011;6801;53.018;11.560;2023-03-31T04:19:02;5.45;;;1.80;;
13457;SDS011;6801;53.018;11.560;2023-03-31T04:21:29;9.85;;;1.85;;
13457;SDS011;6801;53.018;11.560;2023-03-31T04:24:00;6.30;;;2.00;;
13457;SDS011;6801;53.018;11.560;2023-03-31T04:26:29;6.43;;;2.27;;
13457;SDS011;6801;53.018;11.560;2023-03-31T04:29:07;10.27;;;1.83;;
13457;SDS011;6801;53.018;11.560;2023-03-31T04:31:36;7.43;;;1.80;;
13457;SDS011;6801;53.018;11.560;2023-03-31T04:34:06;7.03;;;1.90;;
13457;SDS011;6801;53.018;11.560;2023-03-31T04:39:08;6.22;;;1.40;;
13457;SDS011;6801;53.018;11.560;2023-03-31T04:41:35;9.35;;;1.80;;
13457;SDS011;6801;53.018;11.560;2023-03-31T04:44:03;8.68;;;2.05;;
13457;SDS011;6801;53.018;11.560;2023-03-31T04:46:31;5.50;;;1.60;;
13457;SDS011;6801;53.018;11.560;2023-03-31T04:48:58;7.28;;;1.90;;
13457;SDS011;6801;53.018;11.560;2023-03-31T04:51:25;7.72;;;1.83;;
13457;SDS011;6801;53.018;11.560;2023-03-31T04:53:52;4.97;;;1.48;;
13457;SDS011;6801;53.018;11.560;2023-03-31T04:56:20;7.30;;;1.40;;
13457;SDS011;6801;53.018;11.560;2023-03-31T04:58:48;6.57;;;1.55;;
13457;SDS011;6801;53.018;11.560;2023-03-31T05:01:14;7.10;;;1.92;;
13457;SDS011;6801;53.018;11.560;2023-03-31T05:03:43;6.32;;;1.60;;
13457;SDS011;6801;53.018;11.560;2023-03-31T05:06:11;11.30;;;2.10;;
13457;SDS011;6801;53.018;11.560;2023-03-31T05:08:39;9.20;;;1.92;;
13457;SDS011;6801;53.018;11.560;2023-03-31T05:11:05;5.75;;;1.40;;
13457;SDS011;6801;53.018;11.560;2023-03-31T05:13:34;9.00;;;1.70;;
13457;SDS011;6801;53.018;11.560;2023-03-31T05:16:05;8.48;;;1.73;;
13457;SDS011;6801;53.018;11.560;2023-03-31T05:18:32;2.47;;;1.17;;
13457;SDS011;6801;53.018;11.560;2023-03-31T05:21:07;5.60;;;1.80;;
13457;SDS011;6801;53.018;11.560;2023-03-31T05:23:35;6.70;;;1.30;;
13457;SDS011;6801;53.018;11.560;2023-03-31T05:26:02;12.35;;;2.22;;
13457;SDS011;6801;53.018;11.560;2023-03-31T05:28:30;10.10;;;2.55;;
13457;SDS011;6801;53.018;11.560;2023-03-31T05:30:59;11.52;;;2.30;;
13457;SDS011;6801;53.018;11.560;2023-03-31T05:33:26;6.68;;;2.10;;
13457;SDS011;6801;53.018;11.560;2023-03-31T05:35:53;8.38;;;1.88;;
13457;SDS011;6801;53.018;11.560;2023-03-31T05:38:20;9.35;;;2.20;;
13457;SDS011;6801;53.018;11.560;2023-03-31T05:40:47;7.03;;;1.98;;
13457;SDS011;6801;53.018;11.560;2023-03-31T05:43:14;6.82;;;2.13;;
13457;SDS011;6801;53.018;11.560;2023-03-31T05:45:41;8.23;;;1.70;;
13457;SDS011;6801;53.018;11.560;2023-03-31T05:48:09;5.50;;;1.52;;
13457;SDS011;6801;53.018;11.560;2023-03-31T05:50:36;10.52;;;1.77;;
13457;SDS011;6801;53.018;11.560;2023-03-31T05:53:03;7.22;;;1.60;;
13457;SDS011;6801;53.018;11.560;2023-03-31T05:55:30;6.38;;;1.80;;
13457;SDS011;6801;53.018;11.560;2023-03-31T05:57:57;9.43;;;2.22;;
13457;SDS011;6801;53.018;11.560;2023-03-31T06:00:24;10.52;;;1.88;;
13457;SDS011;6801;53.018;11.560;2023-03-31T06:02:51;5.80;;;1.40;;
13457;SDS011;6801;53.018;11.560;2023-03-31T06:05:19;6.60;;;1.60;;
13457;SDS011;6801;53.018;11.560;2023-03-31T06:07:50;3.30;;;1.10;;
13457;SDS011;6801;53.018;11.560;2023-03-31T06:10:18;5.75;;;1.60;;
13457;SDS011;6801;53.018;11.560;2023-03-31T06:12:45;7.85;;;1.63;;
13457;SDS011;6801;53.018;11.560;2023-03-31T06:15:12;6.95;;;1.95;;
13457;SDS011;6801;53.018;11.560;2023-03-31T06:17:40;3.85;;;1.10;;
13457;SDS011;6801;53.018;11.560;2023-03-31T06:20:07;6.75;;;1.40;;
13457;SDS011;6801;53.018;11.560;2023-03-31T06:22:36;5.47;;;1.05;;
13457;SDS011;6801;53.018;11.560;2023-03-31T06:25:03;5.65;;;1.23;;
13457;SDS011;6801;53.018;11.560;2023-03-31T06:27:30;8.15;;;1.77;;
13457;SDS011;6801;53.018;11.560;2023-03-31T06:29:57;6.28;;;1.35;;
13457;SDS011;6801;53.018;11.560;2023-03-31T06:32:24;7.88;;;1.27;;
13457;SDS011;6801;53.018;11.560;2023-03-31T06:34:51;7.90;;;1.73;;
13457;SDS011;6801;53.018;11.560;2023-03-31T06:37:18;6.18;;;1.10;;
13457;SDS011;6801;53.018;11.560;2023-03-31T06:39:46;8.88;;;2.22;;
13457;SDS011;6801;53.018;11.560;2023-03-31T06:42:14;6.25;;;1.65;;
13457;SDS011;6801;53.018;11.560;2023-03-31T06:44:43;8.77;;;1.00;;
13457;SDS011;6801;53.018;11.560;2023-03-31T06:47:10;5.63;;;1.38;;
13457;SDS011;6801;53.018;11.560;2023-03-31T06:49:37;4.10;;;0.85;;
13457;SDS011;6801;53.018;11.560;2023-03-31T06:52:04;5.63;;;1.35;;
13457;SDS011;6801;53.018;11.560;2023-03-31T06:54:31;5.25;;;1.00;;
13457;SDS011;6801;53.018;11.560;2023-03-31T06:56:59;8.88;;;1.60;;
13457;SDS011;6801;53.018;11.560;2023-03-31T06:59:26;8.02;;;1.40;;
13457;SDS011;6801;53.018;11.560;2023-03-31T07:01:53;4.20;;;1.20;;
13457;SDS011;6801;53.018;11.560;2023-03-31T07:04:20;6.50;;;1.33;;
13457;SDS011;6801;53.018;11.560;2023-03-31T07:06:47;5.15;;;0.80;;
13457;SDS011;6801;53.018;11.560;2023-03-31T07:09:14;6.32;;;1.20;;
13457;SDS011;6801;53.018;11.560;2023-03-31T07:11:40;5.95;;;2.20;;
13457;SDS011;6801;53.018;11.560;2023-03-31T07:14:09;3.58;;;0.80;;
13457;SDS011;6801;53.018;11.560;2023-03-31T07:16:36;3.35;;;1.00;;
13457;SDS011;6801;53.018;11.560;2023-03-31T07:19:02;9.52;;;0.88;;
13457;SDS011;6801;53.018;11.560;2023-03-31T07:21:30;5.45;;;0.93;;
13457;SDS011;6801;53.018;11.560;2023-03-31T07:23:57;5.80;;;0.85;;
13457;SDS011;6801;53.018;11.560;2023-03-31T07:26:24;3.53;;;0.77;;
13457;SDS011;6801;53.018;11.560;2023-03-31T07:28:51;5.15;;;0.98;;
13457;SDS011;6801;53.018;11.560;2023-03-31T07:31:22;9.00;;;1.13;;
13457;SDS011;6801;53.018;11.560;2023-03-31T07:33:49;6.50;;;1.00;;
13457;SDS011;6801;53.018;11.560;2023-03-31T07:36:16;7.82;;;1.92;;
13457;SDS011;6801;53.018;11.560;2023-03-31T07:38:44;7.30;;;1.00;;
13457;SDS011;6801;53.018;11.560;2023-03-31T07:41:13;5.90;;;1.70;;
13457;SDS011;6801;53.018;11.560;2023-03-31T07:43:41;5.28;;;1.10;;
13457;SDS011;6801;53.018;11.560;2023-03-31T07:46:13;6.45;;;1.25;;
13457;SDS011;6801;53.018;11.560;2023-03-31T07:48:43;8.80;;;1.52;;
13457;SDS011;6801;53.018;11.560;2023-03-31T07:51:10;6.47;;;1.02;;
13457;SDS011;6801;53.018;11.560;2023-03-31T07:53:37;7.53;;;1.15;;
13457;SDS011;6801;53.018;11.560;2023-03-31T07:56:04;4.68;;;1.10;;
13457;SDS011;6801;53.018;11.560;2023-03-31T07:58:31;7.03;;;1.42;;
13457;SDS011;6801;53.018;11.560;2023-03-31T08:00:58;5.90;;;0.80;;
13457;SDS011;6801;53.018;11.560;2023-03-31T08:03:26;7.90;;;0.88;;
13457;SDS011;6801;53.018;11.560;2023-03-31T08:05:54;3.03;;;1.17;;
13457;SDS011;6801;53.018;11.560;2023-03-31T08:08:21;3.55;;;1.02;;
13457;SDS011;6801;53.018;11.560;2023-03-31T08:10:48;7.90;;;0.98;;
13457;SDS011;6801;53.018;11.560;2023-03-31T08:13:15;6.50;;;0.80;;
13457;SDS011;6801;53.018;11.560;2023-03-31T08:15:42;5.30;;;1.55;;
13457;SDS011;6801;53.018;11.560;2023-03-31T08:18:09;7.30;;;1.23;;
13457;SDS011;6801;53.018;11.560;2023-03-31T08:20:36;9.32;;;1.10;;
13457;SDS011;6801;53.018;11.560;2023-03-31T08:23:04;6.25;;;1.00;;
13457;SDS011;6801;53.018;11.560;2023-03-31T08:25:35;5.13;;;1.15;;
13457;SDS011;6801;53.018;11.560;2023-03-31T08:28:02;3.60;;;0.80;;
13457;SDS011;6801;53.018;11.560;2023-03-31T08:30:31;5.90;;;1.00;;
13457;SDS011;6801;53.018;11.560;2023-03-31T08:32:58;3.72;;;0.80;;
13457;SDS011;6801;53.018;11.560;2023-03-31T08:35:26;5.90;;;0.98;;
13457;SDS011;6801;53.018;11.560;2023-03-31T08:37:52;6.03;;;0.95;;
13457;SDS011;6801;53.018;11.560;2023-03-31T08:40:22;6.30;;;1.00;;
13457;SDS011;6801;53.018;11.560;2023-03-31T08:42:51;5.22;;;1.00;;
13457;SDS011;6801;53.018;11.560;2023-03-31T08:45:21;3.38;;;0.80;;
13457;SDS011;6801;53.018;11.560;2023-03-31T08:47:50;7.07;;;0.90;;
13457;SDS011;6801;53.018;11.560;2023-03-31T08:50:22;7.07;;;1.35;;
13457;SDS011;6801;53.018;11.560;2023-03-31T08:52:54;5.63;;;0.70;;
13457;SDS011;6801;53.018;11.560;2023-03-31T08:55:29;5.90;;;1.40;;
13457;SDS011;6801;53.018;11.560;2023-03-31T08:58:02;3.55;;;0.90;;
13457;SDS011;6801;53.018;11.560;2023-03-31T09:00:37;6.35;;;1.20;;
13457;SDS011;6801;53.018;11.560;2023-03-31T09:03:10;7.85;;;1.08;;
13457;SDS011;6801;53.018;11.560;2023-03-31T09:05:48;10.88;;;1.58;;
13457;SDS011;6801;53.018;11.560;2023-03-31T09:08:23;7.22;;;1.98;;
13457;SDS011;6801;53.018;11.560;2023-03-31T09:11:01;5.63;;;0.68;;
13457;SDS011;6801;53.018;11.560;2023-03-31T09:13:41;9.63;;;1.83;;
13457;SDS011;6801;53.018;11.560;2023-03-31T09:16:17;3.65;;;0.88;;
13457;SDS011;6801;53.018;11.560;2023-03-31T09:18:51;4.97;;;0.90;;
13457;SDS011;6801;53.018;11.560;2023-03-31T09:21:22;7.35;;;1.45;;
13457;SDS011;6801;53.018;11.560;2023-03-31T09:23:55;9.43;;;1.33;;
13457;SDS011;6801;53.018;11.560;2023-03-31T09:26:31;9.75;;;1.13;;
13457;SDS011;6801;53.018;11.560;2023-03-31T09:29:03;5.78;;;0.85;;
13457;SDS011;6801;53.018;11.560;2023-03-31T09:31:40;6.03;;;1.08;;
13457;SDS011;6801;53.018;11.560;2023-03-31T09:34:11;10.27;;;1.40;;
13457;SDS011;6801;53.018;11.560;2023-03-31T09:36:40;5.57;;;0.70;;
13457;SDS011;6801;53.018;11.560;2023-03-31T09:39:09;6.45;;;1.08;;
13457;SDS011;6801;53.018;11.560;2023-03-31T09:41:41;7.95;;;1.30;;
13457;SDS011;6801;53.018;11.560;2023-03-31T09:44:13;6.95;;;1.33;;
13457;SDS011;6801;53.018;11.560;2023-03-31T09:46:51;6.63;;;1.23;;
13457;SDS011;6801;53.018;11.560;2023-03-31T09:49:20;4.95;;;0.90;;
13457;SDS011;6801;53.018;11.560;2023-03-31T09:51:51;5.47;;;1.13;;
13457;SDS011;6801;53.018;11.560;2023-03-31T09:54:27;3.58;;;1.10;;
13457;SDS011;6801;53.018;11.560;2023-03-31T09:57:01;10.25;;;1.52;;
13457;SDS011;6801;53.018;11.560;2023-03-31T09:59:37;8.20;;;1.20;;
13457;SDS011;6801;53.018;11.560;2023-03-31T10:02:15;5.35;;;1.20;;
13457;SDS011;6801;53.018;11.560;2023-03-31T10:04:55;4.97;;;0.93;;
13457;SDS011;6801;53.018;11.560;2023-03-31T10:07:22;4.40;;;0.93;;
13457;SDS011;6801;53.018;11.560;2023-03-31T10:09:51;5.28;;;0.95;;
13457;SDS011;6801;53.018;11.560;2023-03-31T10:12:21;3.50;;;0.80;;
13457;SDS011;6801;53.018;11.560;2023-03-31T10:14:52;6.30;;;1.00;;
13457;SDS011;6801;53.018;11.560;2023-03-31T10:17:21;7.25;;;1.00;;
13457;SDS011;6801;53.018;11.560;2023-03-31T10:19:49;6.57;;;1.05;;
13457;SDS011;6801;53.018;11.560;2023-03-31T10:22:25;5.85;;;0.98;;
13457;SDS011;6801;53.018;11.560;2023-03-31T10:24:53;3.55;;;0.73;;
13457;SDS011;6801;53.018;11.560;2023-03-31T10:27:36;3.90;;;0.70;;
13457;SDS011;6801;53.018;11.560;2023-03-31T10:30:08;6.43;;;1.00;;
13457;SDS011;6801;53.018;11.560;2023-03-31T10:32:37;5.57;;;0.75;;
13457;SDS011;6801;53.018;11.560;2023-03-31T10:35:07;4.43;;;0.82;;
13457;SDS011;6801;53.018;11.560;2023-03-31T10:37:44;4.10;;;0.90;;
13457;SDS011;6801;53.018;11.560;2023-03-31T10:40:15;3.72;;;1.40;;
13457;SDS011;6801;53.018;11.560;2023-03-31T10:42:48;3.75;;;0.65;;
13457;SDS011;6801;53.018;11.560;2023-03-31T10:45:27;4.70;;;0.82;;
13457;SDS011;6801;53.018;11.560;2023-03-31T10:47:57;5.37;;;0.93;;
13457;SDS011;6801;53.018;11.560;2023-03-31T10:50:25;3.80;;;0.75;;
13457;SDS011;6801;53.018;11.560;2023-03-31T10:52:59;5.75;;;1.38;;
13457;SDS011;6801;53.018;11.560;2023-03-31T10:55:30;4.22;;;0.60;;
13457;SDS011;6801;53.018;11.560;2023-03-31T10:58:03;8.32;;;1.33;;
13457;SDS011;6801;53.018;11.560;2023-03-31T11:00:41;4.20;;;1.00;;
13457;SDS011;6801;53.018;11.560;2023-03-31T11:06:21;5.13;;;1.10;;
13457;SDS011;6801;53.018;11.560;2023-03-31T11:08:56;6.80;;;1.10;;
13457;SDS011;6801;53.018;11.560;2023-03-31T11:14:25;5.45;;;1.30;;
13457;SDS011;6801;53.018;11.560;2023-03-31T11:17:04;4.47;;;1.00;;
13457;SDS011;6801;53.018;11.560;2023-03-31T11:19:43;4.68;;;1.08;;
13457;SDS011;6801;53.018;11.560;2023-03-31T11:22:20;2.67;;;0.95;;
13457;SDS011;6801;53.018;11.560;2023-03-31T11:25:04;4.63;;;1.10;;
13457;SDS011;6801;53.018;11.560;2023-03-31T11:28:03;5.82;;;0.90;;
13457;SDS011;6801;53.018;11.560;2023-03-31T11:30:48;4.78;;;1.00;;
13457;SDS011;6801;53.018;11.560;2023-03-31T11:36:15;7.40;;;1.23;;
13457;SDS011;6801;53.018;11.560;2023-03-31T11:38:56;4.50;;;1.10;;
13457;SDS011;6801;53.018;11.560;2023-03-31T11:41:31;3.47;;;0.80;;
13457;SDS011;6801;53.018;11.560;2023-03-31T11:44:00;6.00;;;1.23;;
13457;SDS011;6801;53.018;11.560;2023-03-31T11:46:33;4.10;;;1.00;;
13457;SDS011;6801;53.018;11.560;2023-03-31T11:49:05;4.45;;;1.08;;
13457;SDS011;6801;53.018;11.560;2023-03-31T11:51:41;4.82;;;1.50;;
13457;SDS011;6801;53.018;11.560;2023-03-31T11:54:15;6.25;;;1.38;;
13457;SDS011;6801;53.018;11.560;2023-03-31T11:56:45;5.05;;;1.20;;
13457;SDS011;6801;53.018;11.560;2023-03-31T11:59:13;7.40;;;1.45;;
13457;SDS011;6801;53.018;11.560;2023-03-31T12:01:44;4.97;;;0.90;;
13457;SDS011;6801;53.018;11.560;2023-03-31T12:04:21;6.35;;;1.35;;
13457;SDS011;6801;53.018;11.560;2023-03-31T12:06:57;6.38;;;1.65;;
13457;SDS011;6801;53.018;11.560;2023-03-31T12:09:29;5.55;;;1.20;;
13457;SDS011;6801;53.018;11.560;2023-03-31T12:12:04;5.80;;;1.25;;
13457;SDS011;6801;53.018;11.560;2023-03-31T12:14:36;4.70;;;1.20;;
13457;SDS011;6801;53.018;11.560;2023-03-31T12:17:11;8.68;;;1.30;;
13457;SDS011;6801;53.018;11.560;2023-03-31T12:19:43;6.22;;;1.33;;
13457;SDS011;6801;53.018;11.560;2023-03-31T12:22:14;7.68;;;1.67;;
13457;SDS011;6801;53.018;11.560;2023-03-31T12:24:45;4.07;;;1.27;;
13457;SDS011;6801;53.018;11.560;2023-03-31T12:27:13;3.47;;;1.25;;
13457;SDS011;6801;53.018;11.560;2023-03-31T12:29:44;7.32;;;1.88;;
13457;SDS011;6801;53.018;11.560;2023-03-31T12:32:15;3.95;;;1.35;;
13457;SDS011;6801;53.018;11.560;2023-03-31T12:34:47;6.07;;;1.85;;
13457;SDS011;6801;53.018;11.560;2023-03-31T12:37:31;7.22;;;1.80;;
13457;SDS011;6801;53.018;11.560;2023-03-31T12:40:17;3.58;;;1.40;;
13457;SDS011;6801;53.018;11.560;2023-03-31T12:42:59;6.40;;;1.38;;
13457;SDS011;6801;53.018;11.560;2023-03-31T12:45:40;4.93;;;1.70;;
13457;SDS011;6801;53.018;11.560;2023-03-31T12:51:16;6.47;;;1.55;;
13457;SDS011;6801;53.018;11.560;2023-03-31T12:53:56;5.80;;;1.13;;
13457;SDS011;6801;53.018;11.560;2023-03-31T12:59:39;5.45;;;1.40;;
13457;SDS011;6801;53.018;11.560;2023-03-31T13:02:15;6.72;;;1.38;;
13457;SDS011;6801;53.018;11.560;2023-03-31T13:04:52;2.88;;;0.63;;
13457;SDS011;6801;53.018;11.560;2023-03-31T13:10:26;3.38;;;0.90;;
13457;SDS011;6801;53.018;11.560;2023-03-31T13:12:57;3.13;;;0.65;;
13457;SDS011;6801;53.018;11.560;2023-03-31T13:15:28;2.80;;;0.60;;
13457;SDS011;6801;53.018;11.560;2023-03-31T13:17:57;3.72;;;0.60;;
13457;SDS011;6801;53.018;11.560;2023-03-31T13:20:33;0.98;;;0.50;;
13457;SDS011;6801;53.018;11.560;2023-03-31T13:25:51;3.22;;;0.60;;
13457;SDS011;6801;53.018;11.560;2023-03-31T13:28:26;3.97;;;0.70;;
13457;SDS011;6801;53.018;11.560;2023-03-31T13:31:14;4.20;;;0.70;;
13457;SDS011;6801;53.018;11.560;2023-03-31T13:33:46;2.33;;;0.55;;
13457;SDS011;6801;53.018;11.560;2023-03-31T13:36:27;2.60;;;0.57;;
13457;SDS011;6801;53.018;11.560;2023-03-31T13:42:07;1.92;;;0.43;;
13457;SDS011;6801;53.018;11.560;2023-03-31T13:44:59;2.05;;;0.45;;
13457;SDS011;6801;53.018;11.560;2023-03-31T13:53:17;1.83;;;0.40;;
13457;SDS011;6801;53.018;11.560;2023-03-31T13:56:12;2.22;;;0.45;;
13457;SDS011;6801;53.018;11.560;2023-03-31T13:59:04;1.33;;;0.50;;
13457;SDS011;6801;53.018;11.560;2023-03-31T14:02:11;1.65;;;0.60;;
13457;SDS011;6801;53.018;11.560;2023-03-31T14:05:07;3.00;;;0.57;;
13457;SDS011;6801;53.018;11.560;2023-03-31T14:07:49;4.28;;;1.98;;
13457;SDS011;6801;53.018;11.560;2023-03-31T14:10:26;5.70;;;1.85;;
13457;SDS011;6801;53.018;11.560;2023-03-31T14:13:04;1.42;;;0.55;;
13457;SDS011;6801;53.018;11.560;2023-03-31T14:15:32;3.72;;;0.88;;
13457;SDS011;6801;53.018;11.560;2023-03-31T14:18:02;2.40;;;0.50;;
13457;SDS011;6801;53.018;11.560;2023-03-31T14:20:35;2.83;;;0.80;;
13457;SDS011;6801;53.018;11.560;2023-03-31T14:23:13;1.60;;;0.60;;
13457;SDS011;6801;53.018;11.560;2023-03-31T14:25:50;1.65;;;0.95;;
13457;SDS011;6801;53.018;11.560;2023-03-31T14:31:23;1.60;;;0.52;;
13457;SDS011;6801;53.018;11.560;2023-03-31T14:34:14;2.17;;;0.63;;
13457;SDS011;6801;53.018;11.560;2023-03-31T14:36:57;1.95;;;0.47;;
13457;SDS011;6801;53.018;11.560;2023-03-31T14:39:26;1.90;;;0.50;;
13457;SDS011;6801;53.018;11.560;2023-03-31T14:44:26;1.83;;;0.77;;
13457;SDS011;6801;53.018;11.560;2023-03-31T14:46:55;0.85;;;0.55;;
13457;SDS011;6801;53.018;11.560;2023-03-31T14:49:24;3.08;;;0.90;;
13457;SDS011;6801;53.018;11.560;2023-03-31T14:51:53;2.53;;;0.73;;
13457;SDS011;6801;53.018;11.560;2023-03-31T14:54:33;1.83;;;0.30;;
13457;SDS011;6801;53.018;11.560;2023-03-31T15:04:46;2.25;;;0.63;;
13457;SDS011;6801;53.018;11.560;2023-03-31T15:07:16;4.30;;;0.90;;
13457;SDS011;6801;53.018;11.560;2023-03-31T15:09:46;2.58;;;0.68;;
13457;SDS011;6801;53.018;11.560;2023-03-31T15:12:16;3.20;;;1.00;;
13457;SDS011;6801;53.018;11.560;2023-03-31T15:14:47;1.85;;;0.98;;
13457;SDS011;6801;53.018;11.560;2023-03-31T15:17:16;2.95;;;0.80;;
13457;SDS011;6801;53.018;11.560;2023-03-31T15:19:50;1.07;;;0.60;;
13457;SDS011;6801;53.018;11.560;2023-03-31T15:22:20;3.17;;;1.02;;
13457;SDS011;6801;53.018;11.560;2023-03-31T15:30:11;4.63;;;0.60;;
13457;SDS011;6801;53.018;11.560;2023-03-31T15:32:42;2.95;;;0.50;;
13457;SDS011;6801;53.018;11.560;2023-03-31T15:35:15;3.85;;;0.70;;
13457;SDS011;6801;53.018;11.560;2023-03-31T15:37:51;1.95;;;0.50;;
13457;SDS011;6801;53.018;11.560;2023-03-31T15:40:22;2.22;;;0.63;;
13457;SDS011;6801;53.018;11.560;2023-03-31T15:42:52;3.03;;;0.73;;
13457;SDS011;6801;53.018;11.560;2023-03-31T15:48:02;1.63;;;0.80;;
13457;SDS011;6801;53.018;11.560;2023-03-31T15:50:32;2.13;;;0.40;;
13457;SDS011;6801;53.018;11.560;2023-03-31T15:52:59;3.63;;;0.83;;
13457;SDS011;6801;53.018;11.560;2023-03-31T15:55:29;2.30;;;0.60;;
13457;SDS011;6801;53.018;11.560;2023-03-31T15:57:58;3.10;;;0.90;;
13457;SDS011;6801;53.018;11.560;2023-03-31T16:00:42;3.00;;;0.80;;
13457;SDS011;6801;53.018;11.560;2023-03-31T16:03:14;2.00;;;0.70;;
13457;SDS011;6801;53.018;11.560;2023-03-31T16:05:48;1.10;;;0.55;;
13457;SDS011;6801;53.018;11.560;2023-03-31T16:08:21;4.40;;;0.60;;
13457;SDS011;6801;53.018;11.560;2023-03-31T16:10:54;3.15;;;0.70;;
13457;SDS011;6801;53.018;11.560;2023-03-31T16:13:24;1.17;;;0.55;;
13457;SDS011;6801;53.018;11.560;2023-03-31T16:15:53;2.38;;;0.52;;
13457;SDS011;6801;53.018;11.560;2023-03-31T16:18:24;2.35;;;0.95;;
13457;SDS011;6801;53.018;11.560;2023-03-31T16:20:56;2.80;;;0.77;;